Skip Navigation LinksHome page > Weather > Current weather Skip Navigation Links

Current Weather

Culiacan Apt, Culiacan, Sin., Mexico

For information only: do not use for flight planning or navigation.
Latest weather
Observation time Monday, January 18, 2021 10:42 PM CST
Local time Tuesday, January 19, 2021 3:24 AM CST
Flight conditions Visual Meteorological Conditions
Winds
Wind speed calm
Visibility 10 mi.
Sky condition
Ceiling unlimited
Cloud layer few clouds 14,000 ft.
Temperature 63°F
Dewpoint 57°F
Altimeter 29.89 in.Hg
Derived measurements
Relative humidity 83%
Density altitude 493 ft.
METAR MMCL 190442Z 00000KT 10SM FEW140 17/14 A2989 RMK 8/030

Settings

Location code

InnerDrive.Weather 4.0.6770.0 Release CLR 4.0.30319.42000
Copyright ©2018 Inner Drive Technology. All rights reserved. Portions Copyright ©1986-2018 David Braverman.

Find weather

Site navigation


Skip Navigation Links

Place info

Page info

PayPal - The safer, easier way to pay online!

Return home.

Copyright ©2021 Inner Drive Technology. Purveyors of fine, hand-crafted computer software. Page printed 2021-01-19T09:24:16 UTC.